createdAt,value
2019-01-20T00:02:03.933Z,-0.90
2019-01-20T00:04:39.345Z,-0.90
2019-01-20T00:07:16.807Z,-0.90
2019-01-20T00:09:55.294Z,-0.90
2019-01-20T00:12:30.494Z,-0.90
2019-01-20T00:15:03.719Z,-1.00
2019-01-20T00:17:35.060Z,-0.90
2019-01-20T00:20:07.671Z,-1.00
2019-01-20T00:22:42.863Z,-1.00
2019-01-20T00:25:19.270Z,-1.00
2019-01-20T00:27:53.022Z,-1.00
2019-01-20T00:30:24.367Z,-1.00
2019-01-20T00:32:57.870Z,-1.00
2019-01-20T00:35:33.927Z,-1.00
2019-01-20T00:38:09.679Z,-1.10
2019-01-20T00:40:53.993Z,-1.10
2019-01-20T00:43:32.440Z,-1.10
2019-01-20T00:46:10.627Z,-1.10
2019-01-20T00:48:44.391Z,-1.10
2019-01-20T00:51:19.150Z,-1.10
2019-01-20T00:53:53.107Z,-1.20
2019-01-20T00:56:28.579Z,-1.10
2019-01-20T00:59:06.882Z,-1.20
2019-01-20T01:01:40.687Z,-1.20
2019-01-20T01:04:14.100Z,-1.20
2019-01-20T01:06:50.285Z,-1.20
2019-01-20T01:09:27.654Z,-1.30
2019-01-20T01:12:02.475Z,-1.30
2019-01-20T01:14:34.629Z,-1.40
2019-01-20T01:17:08.553Z,-1.40
2019-01-20T01:19:44.270Z,-1.50
2019-01-20T01:22:24.431Z,-1.50
2019-01-20T01:24:59.352Z,-1.50
2019-01-20T01:27:34.855Z,-1.60
2019-01-20T01:30:13.746Z,-1.60
2019-01-20T01:32:48.769Z,-1.60
2019-01-20T01:35:27.929Z,-1.70
2019-01-20T01:37:59.931Z,-1.70
2019-01-20T01:40:42.313Z,-1.70
2019-01-20T01:43:14.764Z,-1.80
2019-01-20T01:45:53.927Z,-1.80
2019-01-20T01:48:25.417Z,-1.80
2019-01-20T01:51:05.155Z,-1.80
2019-01-20T01:53:43.027Z,-1.80
2019-01-20T01:56:20.263Z,-1.80
2019-01-20T01:58:59.970Z,-1.80
2019-01-20T02:01:40.653Z,-1.80
2019-01-20T02:04:21.700Z,-1.90
2019-01-20T02:07:00.619Z,-1.90
2019-01-20T02:09:34.651Z,-1.90
2019-01-20T02:12:13.084Z,-1.90
2019-01-20T02:14:50.258Z,-1.90
2019-01-20T02:17:25.876Z,-1.90
2019-01-20T02:20:02.377Z,-2.00
2019-01-20T02:22:40.389Z,-2.00
2019-01-20T02:25:26.539Z,-2.00
2019-01-20T02:28:13.141Z,-2.00
2019-01-20T02:30:46.205Z,-2.00
2019-01-20T02:33:22.166Z,-2.00
2019-01-20T02:36:02.521Z,-2.00
2019-01-20T02:38:42.744Z,-2.00
2019-01-20T02:41:18.632Z,-2.10
2019-01-20T02:43:51.459Z,-2.10
2019-01-20T02:46:26.303Z,-2.20
2019-01-20T02:49:02.743Z,-2.20
2019-01-20T02:51:41.569Z,-2.20
2019-01-20T02:54:12.811Z,-2.20
2019-01-20T02:56:50.994Z,-2.20
2019-01-20T02:59:27.165Z,-2.20
2019-01-20T03:01:59.995Z,-2.30
2019-01-20T03:04:34.415Z,-2.30
2019-01-20T03:07:08.699Z,-2.30
2019-01-20T03:09:42.647Z,-2.30
2019-01-20T03:12:24.053Z,-2.30
2019-01-20T03:14:59.000Z,-2.30
2019-01-20T03:17:33.107Z,-2.20
2019-01-20T03:20:18.213Z,-2.20
2019-01-20T03:22:58.345Z,-2.20
2019-01-20T03:25:33.985Z,-2.20
2019-01-20T03:28:13.557Z,-2.20
2019-01-20T03:30:59.775Z,-2.30
2019-01-20T03:33:37.530Z,-2.30
2019-01-20T03:36:19.915Z,-2.20
2019-01-20T03:38:52.714Z,-2.20
2019-01-20T03:41:25.475Z,-2.20
2019-01-20T03:43:58.951Z,-2.20
2019-01-20T03:46:36.538Z,-2.20
2019-01-20T03:49:10.980Z,-2.20
2019-01-20T03:51:45.276Z,-2.20
2019-01-20T03:54:20.130Z,-2.30
2019-01-20T03:56:58.168Z,-2.20
2019-01-20T03:59:31.748Z,-2.20
2019-01-20T04:02:14.763Z,-2.20
2019-01-20T04:04:46.453Z,-2.20
2019-01-20T04:07:28.266Z,-2.20
2019-01-20T04:10:03.456Z,-2.30
2019-01-20T04:12:37.484Z,-2.30
2019-01-20T04:15:22.634Z,-2.30
2019-01-20T04:17:56.802Z,-2.30
2019-01-20T04:20:30.869Z,-2.30
2019-01-20T04:23:03.648Z,-2.20
2019-01-20T04:25:34.666Z,-2.30
2019-01-20T04:28:07.519Z,-2.30
2019-01-20T04:30:42.149Z,-2.30
2019-01-20T04:33:16.303Z,-2.30
2019-01-20T04:35:50.998Z,-2.30
2019-01-20T04:38:22.181Z,-2.30
2019-01-20T04:40:57.259Z,-2.20
2019-01-20T04:43:35.425Z,-2.20
2019-01-20T04:46:09.846Z,-2.20
2019-01-20T04:48:43.908Z,-2.20
2019-01-20T04:51:14.367Z,-2.20
2019-01-20T04:53:55.377Z,-2.20
2019-01-20T04:56:30.565Z,-2.20
2019-01-20T04:59:05.727Z,-2.20
2019-01-20T05:01:41.560Z,-2.20
2019-01-20T05:04:24.957Z,-2.20
2019-01-20T05:07:00.294Z,-2.20
2019-01-20T05:09:42.448Z,-2.20
2019-01-20T05:12:24.445Z,-2.20
2019-01-20T05:14:57.958Z,-2.20
2019-01-20T05:17:29.008Z,-2.20
2019-01-20T05:20:01.975Z,-2.20
2019-01-20T05:22:32.936Z,-2.20
2019-01-20T05:25:08.958Z,-2.30
2019-01-20T05:27:50.258Z,-2.30
2019-01-20T05:30:27.854Z,-2.30
2019-01-20T05:33:03.484Z,-2.30
2019-01-20T05:35:39.645Z,-2.30
2019-01-20T05:38:11.122Z,-2.30
2019-01-20T05:40:44.645Z,-2.30
2019-01-20T05:43:19.342Z,-2.40
2019-01-20T05:45:55.698Z,-2.40
2019-01-20T05:48:34.689Z,-2.40
2019-01-20T05:51:08.723Z,-2.40
2019-01-20T05:53:42.998Z,-2.50
2019-01-20T05:56:20.760Z,-2.50
2019-01-20T05:58:53.727Z,-2.40
2019-01-20T06:01:28.513Z,-2.40
2019-01-20T06:04:02.894Z,-2.40
2019-01-20T06:06:36.876Z,-2.40
2019-01-20T06:09:12.693Z,-2.40
2019-01-20T06:11:46.265Z,-2.40
2019-01-20T06:14:18.522Z,-2.40
2019-01-20T06:16:49.681Z,-2.50
2019-01-20T06:19:20.711Z,-2.50
2019-01-20T06:21:53.751Z,-2.50
2019-01-20T06:24:27.433Z,-2.40
2019-01-20T06:26:58.996Z,-2.40
2019-01-20T06:29:31.968Z,-2.40
2019-01-20T06:32:04.753Z,-2.40
2019-01-20T06:34:40.776Z,-2.40
2019-01-20T06:37:13.497Z,-2.50
2019-01-20T06:39:49.483Z,-2.50
2019-01-20T06:42:31.485Z,-2.50
2019-01-20T06:44:59.652Z,-2.60
2019-01-20T06:47:32.117Z,-2.60
2019-01-20T06:50:03.371Z,-2.70
2019-01-20T06:52:46.175Z,-2.70
2019-01-20T06:55:17.310Z,-2.80
2019-01-20T06:57:53.109Z,-2.80
2019-01-20T07:00:28.158Z,-2.80
2019-01-20T07:03:02.627Z,-2.80
2019-01-20T07:05:38.206Z,-2.80
2019-01-20T07:08:19.182Z,-2.80
2019-01-20T07:10:45.874Z,-2.80
2019-01-20T07:13:20.539Z,-2.80
2019-01-20T07:15:55.274Z,-2.80
2019-01-20T07:18:32.060Z,-2.80
2019-01-20T07:21:07.148Z,-2.90
2019-01-20T07:24:06.295Z,-2.90
2019-01-20T07:26:27.149Z,-2.80
2019-01-20T07:29:12.203Z,-2.80
2019-01-20T07:32:02.094Z,-2.70
2019-01-20T07:34:38.297Z,-2.70
2019-01-20T07:37:19.772Z,-2.80
2019-01-20T07:39:59.348Z,-2.80
2019-01-20T07:42:36.911Z,-2.80
2019-01-20T07:45:17.850Z,-2.90
2019-01-20T07:47:49.060Z,-2.90
2019-01-20T07:50:30.707Z,-2.80
2019-01-20T07:53:13.355Z,-2.80
2019-01-20T07:55:46.841Z,-2.80
2019-01-20T07:58:40.799Z,-2.70
2019-01-20T08:02:00.510Z,-2.70
2019-01-20T08:04:55.415Z,-2.70
2019-01-20T08:08:10.501Z,-2.70
2019-01-20T08:10:47.328Z,-2.70
2019-01-20T08:13:26.007Z,-2.60
2019-01-20T08:16:10.271Z,-2.50
2019-01-20T08:18:54.934Z,-2.40
2019-01-20T08:21:35.156Z,-2.40
2019-01-20T08:24:28.237Z,-2.30
2019-01-20T08:27:07.588Z,-2.30
2019-01-20T08:29:39.654Z,-2.30
2019-01-20T08:32:28.281Z,-2.30
2019-01-20T08:34:59.738Z,-2.30
2019-01-20T08:37:35.385Z,-2.20
2019-01-20T08:40:10.559Z,-2.20
2019-01-20T08:42:42.164Z,-2.20
2019-01-20T08:45:36.831Z,-2.20
2019-01-20T08:48:17.804Z,-2.10
2019-01-20T08:50:54.606Z,-2.10
2019-01-20T08:53:28.445Z,-2.00
2019-01-20T08:55:59.733Z,-2.00
2019-01-20T08:58:31.258Z,-2.00
2019-01-20T09:01:02.082Z,-2.00
2019-01-20T09:03:35.459Z,-1.90
2019-01-20T09:06:09.027Z,-1.80
2019-01-20T09:08:42.067Z,-1.70
2019-01-20T09:11:28.723Z,-1.70
2019-01-20T09:14:01.776Z,-1.60
2019-01-20T09:16:34.420Z,-1.50
2019-01-20T09:19:07.820Z,-1.50
2019-01-20T09:21:42.411Z,-1.30
2019-01-20T09:24:13.147Z,-1.20
2019-01-20T09:26:45.417Z,-1.20
2019-01-20T09:29:22.949Z,-1.10
2019-01-20T09:32:47.309Z,-1.10
2019-01-20T09:34:42.784Z,-1.10
2019-01-20T09:37:31.277Z,-1.00
2019-01-20T09:40:15.174Z,-0.90
2019-01-20T09:42:56.835Z,-0.80
2019-01-20T09:45:46.772Z,-0.70
2019-01-20T09:48:17.983Z,-0.70
2019-01-20T09:50:55.477Z,-0.70
2019-01-20T09:53:36.121Z,-0.60
2019-01-20T09:56:08.926Z,-0.60
2019-01-20T09:58:44.090Z,-0.50
2019-01-20T10:01:19.855Z,-0.50
2019-01-20T10:03:55.629Z,-0.50
2019-01-20T10:06:36.164Z,-0.50
2019-01-20T10:09:28.187Z,-0.40
2019-01-20T10:11:57.309Z,-0.40
2019-01-20T10:14:30.860Z,-0.30
2019-01-20T10:17:21.973Z,-0.20
2019-01-20T10:20:05.329Z,-0.20
2019-01-20T10:22:47.824Z,-0.10
2019-01-20T10:25:19.352Z,-0.10
2019-01-20T10:29:00.859Z,-0.10
2019-01-20T10:31:34.135Z,0.00
2019-01-20T10:34:20.113Z,0.00
2019-01-20T10:37:11.417Z,0.10
2019-01-20T10:39:55.075Z,0.10
2019-01-20T10:42:33.004Z,0.10
2019-01-20T10:45:39.804Z,0.10
2019-01-20T10:48:52.853Z,0.10
2019-01-20T10:51:59.070Z,0.20
2019-01-20T10:55:00.879Z,0.30
2019-01-20T10:58:22.682Z,0.20
2019-01-20T11:01:17.159Z,0.30
2019-01-20T11:03:50.885Z,0.30
2019-01-20T11:06:40.925Z,0.40
2019-01-20T11:09:22.952Z,0.50
2019-01-20T11:11:56.649Z,0.50
2019-01-20T11:14:44.011Z,0.60
2019-01-20T11:17:36.023Z,0.60
2019-01-20T11:20:34.046Z,0.70
2019-01-20T11:23:15.245Z,0.70
2019-01-20T11:25:51.335Z,0.70
2019-01-20T11:28:49.793Z,0.70
2019-01-20T11:31:13.183Z,0.70
2019-01-20T11:33:48.765Z,0.80
2019-01-20T11:36:22.859Z,0.70
2019-01-20T11:38:57.100Z,0.70
2019-01-20T11:41:31.860Z,0.70
2019-01-20T11:44:21.643Z,0.70
2019-01-20T11:47:06.823Z,0.70
2019-01-20T11:49:44.329Z,0.80
2019-01-20T11:52:45.756Z,0.80
2019-01-20T11:55:26.994Z,0.80
2019-01-20T11:58:15.386Z,0.90
2019-01-20T12:00:59.102Z,0.90
2019-01-20T12:03:33.489Z,0.80
2019-01-20T12:06:10.738Z,0.80
2019-01-20T12:08:46.293Z,0.90
2019-01-20T12:11:33.161Z,0.90
2019-01-20T12:14:07.921Z,0.90
2019-01-20T12:16:48.126Z,1.00
2019-01-20T12:19:28.891Z,1.00
2019-01-20T12:22:18.073Z,1.10
2019-01-20T12:24:52.995Z,1.10
2019-01-20T12:27:28.647Z,1.20
2019-01-20T12:30:07.607Z,1.20
2019-01-20T12:32:49.012Z,1.30
2019-01-20T12:35:25.891Z,1.30
2019-01-20T12:38:02.719Z,1.30
2019-01-20T12:40:41.296Z,1.40
2019-01-20T12:43:20.148Z,1.40
2019-01-20T12:45:59.212Z,1.40
2019-01-20T12:48:33.925Z,1.50
2019-01-20T12:51:28.591Z,1.50
2019-01-20T12:54:09.406Z,1.50
2019-01-20T12:56:49.557Z,1.50
2019-01-20T12:59:28.283Z,1.60
2019-01-20T13:02:15.198Z,1.70
2019-01-20T13:04:56.312Z,1.80
2019-01-20T13:07:27.029Z,1.70
2019-01-20T13:10:00.977Z,1.70
2019-01-20T13:12:40.579Z,1.70
2019-01-20T13:15:33.228Z,1.70
2019-01-20T13:18:11.670Z,1.70
2019-01-20T13:21:00.703Z,1.70
2019-01-20T13:23:40.447Z,1.70
2019-01-20T13:26:16.044Z,1.70
2019-01-20T13:29:05.200Z,1.70
2019-01-20T13:31:38.761Z,1.60
2019-01-20T13:34:21.737Z,1.50
2019-01-20T13:37:01.502Z,1.50
2019-01-20T13:39:40.099Z,1.50
2019-01-20T13:42:24.065Z,1.50
2019-01-20T13:45:07.504Z,1.60
2019-01-20T13:47:40.278Z,1.60
2019-01-20T13:50:21.753Z,1.50
2019-01-20T13:53:01.566Z,1.50
2019-01-20T13:55:39.908Z,1.50
2019-01-20T13:58:23.971Z,1.50
2019-01-20T14:01:09.251Z,1.50
2019-01-20T14:04:47.699Z,1.50
2019-01-20T14:06:38.137Z,1.60
2019-01-20T14:09:06.955Z,1.60
2019-01-20T14:11:40.849Z,1.60
2019-01-20T14:14:18.875Z,1.60
2019-01-20T14:16:58.349Z,1.50
2019-01-20T14:19:31.568Z,1.50
2019-01-20T14:22:06.041Z,1.50
2019-01-20T14:24:43.941Z,1.50
2019-01-20T14:27:16.859Z,1.50
2019-01-20T14:29:51.959Z,1.50
2019-01-20T14:32:30.138Z,1.50
2019-01-20T14:35:02.005Z,1.50
2019-01-20T14:37:43.232Z,1.60
2019-01-20T14:40:18.678Z,1.60
2019-01-20T14:42:57.221Z,1.60
2019-01-20T14:45:31.794Z,1.60
2019-01-20T14:48:20.936Z,1.60
2019-01-20T14:50:56.629Z,1.60
2019-01-20T14:53:35.902Z,1.60
2019-01-20T14:56:11.669Z,1.60
2019-01-20T14:58:50.869Z,1.60
2019-01-20T15:01:29.437Z,1.50
2019-01-20T15:04:02.888Z,1.50
2019-01-20T15:06:41.315Z,1.50
2019-01-20T15:09:19.478Z,1.50
2019-01-20T15:11:56.024Z,1.50
2019-01-20T15:14:30.129Z,1.40
2019-01-20T15:17:14.871Z,1.40
2019-01-20T15:20:03.070Z,1.40
2019-01-20T15:22:33.113Z,1.40
2019-01-20T15:25:12.564Z,1.30
2019-01-20T15:27:51.149Z,1.30
2019-01-20T15:30:42.771Z,1.30
2019-01-20T15:33:39.286Z,1.30
2019-01-20T15:37:15.581Z,1.20
2019-01-20T15:39:26.706Z,1.20
2019-01-20T15:42:41.410Z,1.20
2019-01-20T15:45:07.039Z,1.20
2019-01-20T15:47:42.313Z,1.10
2019-01-20T15:50:24.568Z,1.10
2019-01-20T15:53:08.136Z,1.10
2019-01-20T15:55:44.018Z,1.10
2019-01-20T15:58:32.057Z,1.10
2019-01-20T16:01:08.885Z,1.10
2019-01-20T16:03:42.366Z,1.10
2019-01-20T16:06:17.559Z,1.10
2019-01-20T16:09:08.333Z,1.00
2019-01-20T16:11:57.000Z,1.00
2019-01-20T16:14:46.408Z,1.00
2019-01-20T16:17:43.070Z,1.00
2019-01-20T16:20:20.799Z,1.00
2019-01-20T16:22:55.805Z,1.00
2019-01-20T16:25:46.576Z,1.00
2019-01-20T16:28:32.631Z,1.00
2019-01-20T16:31:18.270Z,0.90
2019-01-20T16:34:30.261Z,0.90
2019-01-20T16:37:19.642Z,0.80
2019-01-20T16:40:07.345Z,0.80
2019-01-20T16:42:47.758Z,0.70
2019-01-20T16:45:56.477Z,0.70
2019-01-20T16:48:11.955Z,0.70
2019-01-20T16:51:44.291Z,0.70
2019-01-20T16:54:31.559Z,0.70
2019-01-20T16:56:25.586Z,0.70
2019-01-20T16:59:55.601Z,0.70
2019-01-20T17:05:03.973Z,0.70
2019-01-20T17:07:38.496Z,0.70
2019-01-20T17:10:27.570Z,0.60
2019-01-20T17:13:21.132Z,0.60
2019-01-20T17:16:04.216Z,0.60
2019-01-20T17:18:49.781Z,0.60
2019-01-20T17:21:36.824Z,0.60
2019-01-20T17:24:14.526Z,0.60
2019-01-20T17:27:10.672Z,0.50
2019-01-20T17:29:41.843Z,0.50
2019-01-20T17:32:34.121Z,0.50
2019-01-20T17:35:13.224Z,0.50
2019-01-20T17:37:48.125Z,0.40
2019-01-20T17:40:23.722Z,0.30
2019-01-20T17:43:11.104Z,0.20
2019-01-20T17:45:58.107Z,0.10
2019-01-20T17:48:41.228Z,0.00
2019-01-20T17:51:14.429Z,-0.10
2019-01-20T17:53:47.209Z,0.00
2019-01-20T17:56:19.421Z,0.00
2019-01-20T17:58:54.676Z,0.00
2019-01-20T18:01:26.445Z,0.00
2019-01-20T18:03:59.320Z,0.00
2019-01-20T18:06:33.736Z,0.00
2019-01-20T18:09:15.154Z,0.10
2019-01-20T18:11:57.016Z,0.10
2019-01-20T18:14:37.298Z,0.10
2019-01-20T18:17:28.457Z,0.20
2019-01-20T18:20:09.667Z,0.20
2019-01-20T18:22:43.363Z,0.20
2019-01-20T18:26:22.337Z,0.20
2019-01-20T18:28:12.927Z,0.20
2019-01-20T18:30:57.577Z,0.10
2019-01-20T18:33:33.720Z,0.10
2019-01-20T18:36:24.385Z,0.00
2019-01-20T18:38:59.716Z,0.00
2019-01-20T18:41:38.648Z,-0.10
2019-01-20T18:44:17.876Z,-0.10
2019-01-20T18:46:57.230Z,-0.20
2019-01-20T18:49:54.386Z,-0.20
2019-01-20T18:52:36.670Z,-0.20
2019-01-20T18:55:11.888Z,-0.30
2019-01-20T18:57:48.155Z,-0.30
2019-01-20T19:00:29.618Z,-0.30
2019-01-20T19:03:05.933Z,-0.30
2019-01-20T19:05:42.698Z,-0.30
2019-01-20T19:08:16.022Z,-0.30
2019-01-20T19:10:50.883Z,-0.40
2019-01-20T19:13:29.164Z,-0.40
2019-01-20T19:16:09.341Z,-0.50
2019-01-20T19:19:25.959Z,-0.50
2019-01-20T19:22:14.997Z,-0.60
2019-01-20T19:24:55.467Z,-0.60
2019-01-20T19:27:29.637Z,-0.60
2019-01-20T19:30:03.116Z,-0.70
2019-01-20T19:32:50.795Z,-0.60
2019-01-20T19:35:36.570Z,-0.60
2019-01-20T19:38:17.479Z,-0.60
2019-01-20T19:41:09.992Z,-0.60
2019-01-20T19:44:36.708Z,-0.70
2019-01-20T19:47:07.177Z,-0.70
2019-01-20T19:49:47.818Z,-0.70
2019-01-20T19:52:19.056Z,-0.70
2019-01-20T19:58:15.576Z,-0.80
2019-01-20T20:00:55.668Z,-0.80
2019-01-20T20:03:34.213Z,-0.80
2019-01-20T20:06:19.838Z,-0.90
2019-01-20T20:08:51.798Z,-0.90
2019-01-20T20:11:25.976Z,-0.90
2019-01-20T20:14:04.035Z,-0.90
2019-01-20T20:16:42.295Z,-0.90
2019-01-20T20:19:13.688Z,-0.90
2019-01-20T20:21:53.887Z,-0.90
2019-01-20T20:24:47.138Z,-0.90
2019-01-20T20:27:48.298Z,-0.90
2019-01-20T20:30:54.221Z,-0.90
2019-01-20T20:35:35.051Z,-0.90
2019-01-20T20:37:19.039Z,-0.90
2019-01-20T20:39:45.859Z,-0.90
2019-01-20T20:46:12.158Z,-0.90
2019-01-20T20:49:06.051Z,-0.90
2019-01-20T20:51:42.606Z,-0.90
2019-01-20T20:54:40.726Z,-1.00
2019-01-20T20:57:17.438Z,-0.90
2019-01-20T20:59:53.207Z,-0.90
2019-01-20T21:02:25.756Z,-1.00
2019-01-20T21:05:45.060Z,-1.00
2019-01-20T21:08:39.460Z,-1.00
2019-01-20T21:11:17.851Z,-1.00
2019-01-20T21:13:59.491Z,-1.10
2019-01-20T21:17:04.454Z,-1.10
2019-01-20T21:20:02.124Z,-1.10
2019-01-20T21:22:40.675Z,-1.10
2019-01-20T21:28:31.991Z,-1.10
2019-01-20T21:31:06.008Z,-1.10
2019-01-20T21:33:39.138Z,-1.10
2019-01-20T21:36:23.050Z,-1.20
2019-01-20T21:38:55.807Z,-1.20
2019-01-20T21:43:05.704Z,-1.20
2019-01-20T21:44:05.779Z,-1.30
2019-01-20T21:46:45.242Z,-1.30
2019-01-20T21:49:19.438Z,-1.30
2019-01-20T21:55:45.410Z,-1.40
2019-01-20T21:58:25.450Z,-1.40
2019-01-20T22:01:00.893Z,-1.40
2019-01-20T22:03:39.185Z,-1.50
2019-01-20T22:06:38.459Z,-1.40
2019-01-20T22:09:05.179Z,-1.40
2019-01-20T22:11:41.874Z,-1.40
2019-01-20T22:14:18.004Z,-1.40
2019-01-20T22:17:06.951Z,-1.40
2019-01-20T22:19:43.974Z,-1.40
2019-01-20T22:22:17.873Z,-1.40
2019-01-20T22:25:00.263Z,-1.40
2019-01-20T22:27:35.962Z,-1.40
2019-01-20T22:30:19.919Z,-1.40
2019-01-20T22:33:12.770Z,-1.40
2019-01-20T22:35:45.743Z,-1.30
2019-01-20T22:38:22.715Z,-1.30
2019-01-20T22:41:08.793Z,-1.30
2019-01-20T22:43:45.279Z,-1.40
2019-01-20T22:46:20.138Z,-1.40
2019-01-20T22:48:52.948Z,-1.40
2019-01-20T22:51:23.933Z,-1.50
2019-01-20T22:54:12.073Z,-1.50
2019-01-20T22:56:48.100Z,-1.50
2019-01-20T22:59:34.007Z,-1.50
2019-01-20T23:02:10.683Z,-1.60
2019-01-20T23:04:46.552Z,-1.60
2019-01-20T23:07:20.576Z,-1.60
2019-01-20T23:10:01.136Z,-1.60
2019-01-20T23:12:46.082Z,-1.70
2019-01-20T23:15:18.985Z,-1.70
2019-01-20T23:18:03.200Z,-1.80
2019-01-20T23:20:36.525Z,-1.80
2019-01-20T23:23:14.628Z,-1.90
2019-01-20T23:25:46.910Z,-1.90
2019-01-20T23:28:22.302Z,-1.90
2019-01-20T23:31:00.751Z,-1.90
2019-01-20T23:33:42.624Z,-1.90
2019-01-20T23:36:23.025Z,-2.00
2019-01-20T23:39:11.780Z,-2.00
2019-01-20T23:41:45.843Z,-2.00
2019-01-20T23:45:11.888Z,-2.10
2019-01-20T23:53:44.733Z,-2.10
2019-01-20T23:56:18.623Z,-2.10
2019-01-20T23:58:54.288Z,-2.10
